Terminal Aerodrome Forecast
Issued by NWS Brownsville, TX

Home | Current Version | Previous Version | Text Only | Print | Product List | Glossary On
Versions: 1 2 3 4 5 6 7 8 9 10 11 12 13
000
FTUS44 KBRO 202337
TAFMFE
TAF
KMFE 202337Z 2100/2124 16012G18KT P6SM FEW030
     FM210500 15008KT P6SM SCT015 SCT020
      TEMPO 2107/2111 BKN015
     FM211400 15012KT P6SM FEW035=

USA.gov is the U.S. government's official web portal to all federal, state and local government web resources and services.